Time;durP1;ratioP1;P1;durP2;ratioP2;P2;SDS_P1;SDS_P2;PMS_P1;PMS_P2;Temp;Humidity;BMP_temperature;BMP_pressure;BME280_temperature;BME280_humidity;BME280_pressure;Samples;Min_cycle;Max_cycle;Signal;HPM_P1;HPM_P2
2022/03/09 00:00:52;;;;;;;9.80;6.10;;;;;;-10251.98;;;;107254;1273;64662;-37
2022/03/09 00:03:19;;;;;;;10.50;6.40;;;;;;-10002.16;;;;107220;1274;64747;-37
2022/03/09 00:05:46;;;;;;;9.40;5.80;;;;;;-10251.98;;;;107236;1274;64657;-28
2022/03/09 00:08:13;;;;;;;10.50;6.40;;;;;;-10251.98;;;;107263;1274;64970;-30
2022/03/09 00:10:40;;;;;;;10.70;6.10;;;;;;-10251.98;;;;107246;1274;64760;-29
2022/03/09 00:13:08;;;;;;;10.20;6.80;;;;;;-10376.89;;;;107243;1274;64732;-32
2022/03/09 00:15:35;;;;;;;10.80;6.00;;;;;;-10251.98;;;;107203;1274;64737;-39
2022/03/09 00:18:03;;;;;;;11.60;6.50;;;;;;-10127.07;;;;107271;1274;64749;-39
2022/03/09 00:20:30;;;;;;;9.80;6.40;;;;;;-10002.16;;;;107218;1274;64562;-29
2022/03/09 00:22:57;;;;;;;9.80;6.20;;;;;;-10127.07;;;;107148;1274;64839;-28
2022/03/09 00:25:24;;;;;;;10.90;6.80;;;;;;-10251.98;;;;107252;1274;64773;-39
2022/03/09 00:27:52;;;;;;;12.00;6.40;;;;;;-10127.07;;;;107241;1274;64646;-38
2022/03/09 00:30:18;;;;;;;9.90;6.00;;;;;;-10127.07;;;;107240;1274;64861;-29
2022/03/09 00:32:46;;;;;;;9.70;6.20;;;;;;-10127.07;;;;107169;1273;64849;-30
2022/03/09 00:35:13;;;;;;;10.20;6.30;;;;;;-10251.98;;;;107208;1274;64880;-28
2022/03/09 00:37:40;;;;;;;9.00;5.80;;;;;;-10127.07;;;;107250;1274;64872;-30
2022/03/09 00:40:08;;;;;;;9.60;6.10;;;;;;-10002.16;;;;107156;1273;64899;-29
2022/03/09 00:42:37;;;;;;;9.40;6.50;;;;;;-10127.07;;;;107290;1274;64753;-31
2022/03/09 00:45:06;;;;;;;10.10;6.60;;;;;;-10002.16;;;;107286;1274;65032;-28
2022/03/09 00:47:33;;;;;;;9.90;6.00;;;;;;-10376.89;;;;107260;1274;64759;-29
2022/03/09 00:50:01;;;;;;;10.60;6.70;;;;;;-10002.16;;;;107142;1275;64763;-37
2022/03/09 00:52:28;;;;;;;9.30;6.20;;;;;;-10251.98;;;;107235;1274;64761;-37
2022/03/09 00:54:55;;;;;;;9.60;6.40;;;;;;-10002.16;;;;107170;1274;64677;-31
2022/03/09 00:57:22;;;;;;;9.40;6.10;;;;;;-10251.98;;;;107060;1274;64902;-28
2022/03/09 00:59:50;;;;;;;8.30;5.60;;;;;;-10251.98;;;;107239;1274;64885;-39
2022/03/09 01:02:18;;;;;;;10.60;6.30;;;;;;-10376.89;;;;107145;1274;64856;-38
2022/03/09 01:04:45;;;;;;;10.40;6.60;;;;;;-10127.07;;;;107223;1274;64769;-36
2022/03/09 01:07:12;;;;;;;9.60;6.10;;;;;;-10251.98;;;;107265;1274;64756;-30
2022/03/09 01:09:40;;;;;;;11.10;6.40;;;;;;-10376.89;;;;107254;1274;65465;-29
2022/03/09 01:12:08;;;;;;;9.80;5.90;;;;;;-10002.16;;;;107222;1274;64869;-29
2022/03/09 01:14:35;;;;;;;8.90;6.10;;;;;;-10002.16;;;;107158;1274;64882;-29
2022/03/09 01:17:03;;;;;;;8.70;5.80;;;;;;-10127.07;;;;107125;1274;64950;-29
2022/03/09 01:19:30;;;;;;;9.30;5.80;;;;;;-10251.98;;;;107222;1274;64731;-29
2022/03/09 01:21:58;;;;;;;8.90;5.50;;;;;;-10002.16;;;;107163;1273;64942;-39
2022/03/09 01:24:25;;;;;;;9.50;6.00;;;;;;-10251.98;;;;107247;1274;64975;-39
2022/03/09 01:26:52;;;;;;;8.50;5.50;;;;;;-10251.98;;;;107234;1274;64881;-39
2022/03/09 01:29:20;;;;;;;9.40;5.70;;;;;;-10002.16;;;;107145;1277;65232;-39
2022/03/09 01:31:47;;;;;;;8.60;5.80;;;;;;-10376.89;;;;107153;1273;64897;-40
2022/03/09 01:34:15;;;;;;;9.20;5.90;;;;;;-10127.07;;;;107170;1273;64892;-43
2022/03/09 01:36:42;;;;;;;9.50;5.30;;;;;;-10251.98;;;;107237;1274;64772;-39
2022/03/09 01:39:09;;;;;;;10.60;6.30;;;;;;-10127.07;;;;107110;1274;64860;-38
2022/03/09 01:41:37;;;;;;;9.70;6.10;;;;;;-10251.98;;;;107287;1274;64847;-30
2022/03/09 01:44:23;;;;;;;9.90;5.80;;;;;;-10002.16;;;;107215;1274;64864;-33
2022/03/09 01:46:54;;;;;;;9.10;5.70;;;;;;-10127.07;;;;107255;1274;66077;-29
2022/03/09 01:49:22;;;;;;;10.50;6.20;;;;;;-10127.07;;;;107186;1274;65049;-29
2022/03/09 01:51:57;;;;;;;9.90;6.00;;;;;;-10251.98;;;;107149;1274;64866;-29
2022/03/09 01:54:25;;;;;;;8.60;5.70;;;;;;-10002.16;;;;107249;1274;64750;-29
2022/03/09 01:56:53;;;;;;;10.00;6.00;;;;;;-10127.07;;;;107255;1274;64840;-29
2022/03/09 01:59:20;;;;;;;8.10;5.40;;;;;;-10251.98;;;;107152;1274;64847;-29
2022/03/09 02:01:47;;;;;;;9.10;5.80;;;;;;-10127.07;;;;107223;1274;64732;-28
2022/03/09 02:04:16;;;;;;;8.90;6.10;;;;;;-10127.07;;;;107232;1274;65552;-29
2022/03/09 02:06:44;;;;;;;10.40;6.10;;;;;;-10002.16;;;;107247;1274;64906;-29
2022/03/09 02:11:58;;;;;;;9.40;5.90;;;;;;-10251.98;;;;107247;1274;64891;-29
2022/03/09 02:14:32;;;;;;;9.60;5.80;;;;;;-10251.98;;;;107276;1274;64737;-28
2022/03/09 02:17:12;;;;;;;9.20;5.90;;;;;;-10127.07;;;;107193;1274;64738;-39
2022/03/09 02:19:41;;;;;;;9.50;5.50;;;;;;-10251.98;;;;107085;1274;64741;-37
2022/03/09 02:22:20;;;;;;;9.20;5.70;;;;;;-10002.16;;;;107228;1273;64766;-37
2022/03/09 02:24:49;;;;;;;10.00;5.70;;;;;;-10002.16;;;;107240;1274;64722;-38
2022/03/09 02:27:20;;;;;;;8.60;5.10;;;;;;-10002.16;;;;107186;1274;64974;-39
2022/03/09 02:29:51;;;;;;;8.80;5.70;;;;;;-10002.16;;;;107160;1273;66022;-39
2022/03/09 02:32:19;;;;;;;10.10;5.60;;;;;;-10127.07;;;;107229;1274;64993;-40
2022/03/09 02:34:47;;;;;;;8.60;5.40;;;;;;-10002.16;;;;107323;1274;64750;-29
2022/03/09 02:37:15;;;;;;;8.00;5.60;;;;;;-10127.07;;;;107274;1274;64754;-29
2022/03/09 02:39:42;;;;;;;9.60;5.80;;;;;;-10251.98;;;;107263;1274;64878;-29
2022/03/09 02:42:11;;;;;;;9.20;5.90;;;;;;-10002.16;;;;107163;1274;64763;-29
2022/03/09 02:44:38;;;;;;;9.10;5.60;;;;;;-10127.07;;;;107268;1274;64875;-29
2022/03/09 02:47:07;;;;;;;9.10;5.30;;;;;;-10127.07;;;;107227;1274;64811;-29
2022/03/09 02:49:34;;;;;;;9.70;5.70;;;;;;-10251.98;;;;107266;1274;64879;-29
2022/03/09 02:52:03;;;;;;;9.90;5.80;;;;;;-10002.16;;;;107257;1274;64770;-29
2022/03/09 02:54:30;;;;;;;8.10;5.30;;;;;;-10002.16;;;;107253;1274;64954;-29
2022/03/09 02:56:57;;;;;;;8.50;5.40;;;;;;-10251.98;;;;107236;1273;64780;-29
2022/03/09 02:59:25;;;;;;;9.30;5.50;;;;;;-10002.16;;;;107239;1274;64855;-29
2022/03/09 03:01:52;;;;;;;8.70;5.30;;;;;;-10127.07;;;;107240;1274;64860;-28
2022/03/09 03:04:19;;;;;;;8.80;5.90;;;;;;-10127.07;;;;107158;1273;64886;-29
2022/03/09 03:06:46;;;;;;;8.90;5.50;;;;;;-10251.98;;;;107240;1274;64907;-39
2022/03/09 03:09:14;;;;;;;8.00;5.20;;;;;;-10376.89;;;;107217;1274;64921;-38
2022/03/09 03:11:41;;;;;;;8.90;5.30;;;;;;-10127.07;;;;107259;1274;64871;-29
2022/03/09 03:14:08;;;;;;;9.00;5.70;;;;;;-10251.98;;;;107244;1274;65285;-29
2022/03/09 03:16:36;;;;;;;9.00;5.60;;;;;;-10002.16;;;;107257;1274;64846;-38
2022/03/09 03:19:03;;;;;;;9.10;5.70;;;;;;-10376.89;;;;107225;1273;67079;-38
2022/03/09 03:21:31;;;;;;;8.60;5.30;;;;;;-10251.98;;;;107241;1274;64872;-38
2022/03/09 03:23:59;;;;;;;8.90;5.60;;;;;;-10002.16;;;;107298;1274;65180;-28
2022/03/09 03:26:28;;;;;;;7.60;4.80;;;;;;-10251.98;;;;107262;1274;64775;-28
2022/03/09 03:28:55;;;;;;;8.40;5.30;;;;;;-10002.16;;;;107236;1274;64839;-28
2022/03/09 03:31:23;;;;;;;8.20;5.20;;;;;;-10127.07;;;;107264;1274;64846;-38
2022/03/09 03:33:50;;;;;;;8.90;4.80;;;;;;-10002.16;;;;107247;1274;64722;-39
2022/03/09 03:36:17;;;;;;;7.40;4.80;;;;;;-10251.98;;;;107193;1274;64754;-28
2022/03/09 03:38:45;;;;;;;9.20;5.00;;;;;;-10127.07;;;;107235;1274;64914;-27
2022/03/09 03:41:13;;;;;;;8.20;5.00;;;;;;-10002.16;;;;107203;1274;64754;-28
2022/03/09 03:43:40;;;;;;;8.70;5.40;;;;;;-10251.98;;;;107234;1274;65173;-28
2022/03/09 03:46:07;;;;;;;7.80;5.00;;;;;;-10127.07;;;;107243;1274;64780;-38
2022/03/09 03:48:34;;;;;;;8.70;5.30;;;;;;-10002.16;;;;107239;1274;64761;-38
2022/03/09 03:51:02;;;;;;;8.90;5.20;;;;;;-10127.07;;;;107244;1274;64876;-38
2022/03/09 03:53:29;;;;;;;8.80;5.50;;;;;;-10127.07;;;;107234;1274;64962;-38
2022/03/09 03:55:57;;;;;;;8.20;5.00;;;;;;-10251.98;;;;107232;1274;64835;-39
2022/03/09 03:58:25;;;;;;;8.70;5.80;;;;;;-10127.07;;;;107243;1274;64943;-38
2022/03/09 04:00:52;;;;;;;9.20;4.90;;;;;;-10127.07;;;;107253;1274;64981;-37
2022/03/09 04:03:19;;;;;;;9.10;5.60;;;;;;-10127.07;;;;107271;1274;64827;-38
2022/03/09 04:05:46;;;;;;;8.30;4.80;;;;;;-10002.16;;;;107247;1274;64855;-28
2022/03/09 04:08:13;;;;;;;8.70;5.00;;;;;;-10127.07;;;;107250;1274;64733;-28
2022/03/09 04:10:41;;;;;;;9.20;5.60;;;;;;-10002.16;;;;107118;1277;64762;-37
2022/03/09 04:13:08;;;;;;;8.60;5.20;;;;;;-10127.07;;;;107231;1274;64851;-39
2022/03/09 04:15:35;;;;;;;8.50;5.60;;;;;;-10002.16;;;;107126;1274;64850;-40
2022/03/09 04:18:02;;;;;;;8.40;5.60;;;;;;-10251.98;;;;107141;1273;64887;-39
2022/03/09 04:20:30;;;;;;;8.60;5.20;;;;;;-10251.98;;;;107237;1274;64844;-27
2022/03/09 04:22:57;;;;;;;8.80;5.20;;;;;;-10002.16;;;;107178;1274;64874;-28
2022/03/09 04:25:26;;;;;;;8.80;5.40;;;;;;-10127.07;;;;107012;1273;291282;-39
2022/03/09 04:27:53;;;;;;;8.80;5.20;;;;;;-10251.98;;;;107175;1273;64871;-39
2022/03/09 04:30:21;;;;;;;8.50;4.80;;;;;;-10376.89;;;;107115;1274;64952;-28
2022/03/09 04:32:48;;;;;;;7.40;4.80;;;;;;-10002.16;;;;107233;1274;64807;-29
2022/03/09 04:35:15;;;;;;;8.40;5.20;;;;;;-10002.16;;;;107207;1274;64846;-28
2022/03/09 04:37:43;;;;;;;8.00;5.50;;;;;;-10376.89;;;;107254;1274;65543;-29
2022/03/09 04:40:12;;;;;;;8.50;5.20;;;;;;-10251.98;;;;107167;1274;64543;-28
2022/03/09 04:42:39;;;;;;;7.80;4.90;;;;;;-10251.98;;;;107236;1274;64756;-29
2022/03/09 04:45:08;;;;;;;9.60;5.70;;;;;;-10002.16;;;;107231;1274;64918;-27
2022/03/09 04:47:36;;;;;;;10.40;5.60;;;;;;-10002.16;;;;107159;1275;64858;-31
2022/03/09 04:50:04;;;;;;;7.60;5.00;;;;;;-10501.80;;;;107179;1274;64914;-37
2022/03/09 04:52:31;;;;;;;7.40;4.60;;;;;;-10127.07;;;;107103;1274;64921;-39
2022/03/09 04:54:59;;;;;;;9.50;5.30;;;;;;-10127.07;;;;107124;1274;64869;-31
2022/03/09 04:57:26;;;;;;;8.70;5.20;;;;;;-10251.98;;;;107233;1274;64716;-29
2022/03/09 04:59:53;;;;;;;7.70;4.70;;;;;;-10251.98;;;;107128;1275;65024;-27
2022/03/09 05:02:20;;;;;;;9.30;5.30;;;;;;-10002.16;;;;107254;1274;64958;-29
2022/03/09 05:04:48;;;;;;;9.10;5.10;;;;;;-10127.07;;;;107247;1274;64789;-28
2022/03/09 05:07:15;;;;;;;8.70;5.20;;;;;;-10251.98;;;;107235;1274;64858;-27
2022/03/09 05:09:42;;;;;;;8.40;5.20;;;;;;-10002.16;;;;107257;1274;65498;-36
2022/03/09 05:12:10;;;;;;;8.00;4.80;;;;;;-10127.07;;;;107240;1274;64783;-39
2022/03/09 05:14:37;;;;;;;8.50;5.40;;;;;;-10501.80;;;;107273;1274;64841;-39
2022/03/09 05:17:05;;;;;;;8.20;5.00;;;;;;-10251.98;;;;107236;1274;65828;-28
2022/03/09 05:19:32;;;;;;;9.20;5.40;;;;;;-10127.07;;;;107243;1274;64861;-29
2022/03/09 05:21:59;;;;;;;8.20;5.10;;;;;;-10127.07;;;;107216;1274;64826;-30
2022/03/09 05:24:27;;;;;;;8.10;4.90;;;;;;-10127.07;;;;107217;1274;64728;-29
2022/03/09 05:26:54;;;;;;;8.60;5.60;;;;;;-10127.07;;;;107239;1274;65947;-28
2022/03/09 05:29:21;;;;;;;8.80;4.80;;;;;;-10251.98;;;;107225;1274;65886;-29
2022/03/09 05:31:49;;;;;;;8.70;5.10;;;;;;-10127.07;;;;107171;1274;64847;-39
2022/03/09 05:34:16;;;;;;;8.00;5.20;;;;;;-10127.07;;;;107225;1274;64856;-39
2022/03/09 05:36:43;;;;;;;9.00;5.20;;;;;;-10002.16;;;;107248;1274;64842;-29
2022/03/09 05:39:10;;;;;;;7.40;4.70;;;;;;-10251.98;;;;107161;1274;64866;-28
2022/03/09 05:41:38;;;;;;;8.50;5.30;;;;;;-10251.98;;;;107268;1274;65420;-38
2022/03/09 05:44:06;;;;;;;9.70;5.50;;;;;;-10251.98;;;;107163;1274;64949;-38
2022/03/09 05:46:34;;;;;;;8.10;5.10;;;;;;-10127.07;;;;107260;1274;64705;-37
2022/03/09 05:49:01;;;;;;;8.90;5.30;;;;;;-10376.89;;;;107248;1274;64789;-38
2022/03/09 05:51:29;;;;;;;8.30;5.10;;;;;;-10127.07;;;;107270;1274;64856;-39
2022/03/09 05:53:56;;;;;;;8.40;4.80;;;;;;-10127.07;;;;107295;1274;64868;-42
2022/03/09 05:56:24;;;;;;;8.70;5.00;;;;;;-10002.16;;;;107208;1274;64826;-29
2022/03/09 05:58:51;;;;;;;8.40;4.70;;;;;;-10002.16;;;;107259;1274;65975;-28
2022/03/09 06:01:21;;;;;;;8.50;4.70;;;;;;-10002.16;;;;107209;1274;64882;-39
2022/03/09 06:03:48;;;;;;;7.60;4.90;;;;;;-10127.07;;;;107162;1277;64891;-39
2022/03/09 06:06:15;;;;;;;8.20;5.40;;;;;;-10127.07;;;;107155;1274;64949;-27
2022/03/09 06:08:42;;;;;;;7.90;4.70;;;;;;-10251.98;;;;107185;1274;64859;-29
2022/03/09 06:11:10;;;;;;;6.80;4.80;;;;;;-10127.07;;;;107248;1274;64960;-39
2022/03/09 06:13:37;;;;;;;8.50;5.20;;;;;;-10251.98;;;;107259;1274;64741;-40
2022/03/09 06:16:05;;;;;;;9.10;5.20;;;;;;-10127.07;;;;107278;1274;64716;-32
2022/03/09 06:18:32;;;;;;;8.30;4.90;;;;;;-10376.89;;;;107215;1274;65032;-28
2022/03/09 06:21:00;;;;;;;8.70;4.90;;;;;;-10127.07;;;;107377;1269;64763;-28
2022/03/09 06:23:27;;;;;;;9.00;5.60;;;;;;-10002.16;;;;107242;1274;64965;-28
2022/03/09 06:25:54;;;;;;;9.60;5.30;;;;;;-10127.07;;;;107307;1271;64874;-32
2022/03/09 06:28:22;;;;;;;9.40;5.60;;;;;;-10127.07;;;;107280;1271;65512;-29
2022/03/09 06:30:50;;;;;;;7.40;5.00;;;;;;-10127.07;;;;107254;1271;64805;-38
2022/03/09 06:33:17;;;;;;;8.10;4.80;;;;;;-10127.07;;;;107131;1277;64877;-38
2022/03/09 06:35:45;;;;;;;8.00;5.40;;;;;;-10002.16;;;;107301;1271;64769;-38
2022/03/09 06:38:12;;;;;;;9.00;5.10;;;;;;-10626.71;;;;107240;1271;64859;-39
2022/03/09 06:40:39;;;;;;;9.10;5.50;;;;;;-10127.07;;;;107299;1271;64745;-31
2022/03/09 06:43:07;;;;;;;7.80;5.00;;;;;;-10251.98;;;;107263;1271;64725;-29
2022/03/09 06:45:34;;;;;;;7.90;5.80;;;;;;-10251.98;;;;107145;1274;64867;-38
2022/03/09 06:48:02;;;;;;;8.40;5.80;;;;;;-10251.98;;;;107269;1274;65449;-41
2022/03/09 06:50:29;;;;;;;10.60;5.50;;;;;;-10251.98;;;;107277;1271;64955;-29
2022/03/09 06:52:56;;;;;;;9.00;5.80;;;;;;-10127.07;;;;107291;1271;64837;-27
2022/03/09 06:55:24;;;;;;;9.80;5.50;;;;;;-10251.98;;;;107270;1271;64881;-39
2022/03/09 06:57:51;;;;;;;10.60;6.20;;;;;;-10251.98;;;;107243;1271;64715;-40
2022/03/09 07:00:19;;;;;;;7.90;5.30;;;;;;-10002.16;;;;107279;1271;64807;-29
2022/03/09 07:02:46;;;;;;;8.20;5.20;;;;;;-10127.07;;;;107291;1271;64778;-32
2022/03/09 07:05:14;;;;;;;8.00;4.70;;;;;;-10251.98;;;;107296;1271;64754;-38
2022/03/09 07:07:41;;;;;;;8.40;5.60;;;;;;-10002.16;;;;107260;1271;64891;-39
2022/03/09 07:10:13;;;;;;;9.70;6.30;;;;;;-10127.07;;;;107260;1274;64728;-29
2022/03/09 07:12:44;;;;;;;9.80;5.80;;;;;;-10127.07;;;;107224;1272;64750;-29
2022/03/09 07:15:12;;;;;;;9.10;5.80;;;;;;-10002.16;;;;107264;1271;64844;-29
2022/03/09 07:17:40;;;;;;;8.80;5.60;;;;;;-10127.07;;;;107196;1274;64835;-35
2022/03/09 07:20:09;;;;;;;9.50;5.70;;;;;;-10002.16;;;;107309;1271;64852;-41
2022/03/09 07:22:36;;;;;;;8.00;5.20;;;;;;-10251.98;;;;107293;1271;64769;-39
2022/03/09 07:25:04;;;;;;;8.80;5.90;;;;;;-10127.07;;;;107253;1271;64828;-36
2022/03/09 07:27:32;;;;;;;8.80;5.40;;;;;;-10251.98;;;;107285;1271;64754;-29
2022/03/09 07:29:59;;;;;;;9.20;5.80;;;;;;-10251.98;;;;107235;1272;64875;-29
2022/03/09 07:32:26;;;;;;;8.20;5.20;;;;;;-10251.98;;;;107242;1272;64850;-29
2022/03/09 07:34:53;;;;;;;8.80;5.50;;;;;;-10251.98;;;;107262;1271;64840;-38
2022/03/09 07:37:21;;;;;;;8.00;5.10;;;;;;-10127.07;;;;107243;1271;64831;-39
2022/03/09 07:39:48;;;;;;;7.50;5.10;;;;;;-10376.89;;;;107218;1271;64896;-38
2022/03/09 07:42:16;;;;;;;8.50;5.00;;;;;;-10127.07;;;;107318;1271;64753;-39
2022/03/09 07:44:43;;;;;;;7.80;4.90;;;;;;-10127.07;;;;107280;1271;64734;-28
2022/03/09 07:47:10;;;;;;;7.70;5.10;;;;;;-10251.98;;;;107263;1271;64750;-28
2022/03/09 07:49:37;;;;;;;7.60;4.60;;;;;;-10127.07;;;;107233;1274;64849;-37
2022/03/09 07:52:06;;;;;;;8.70;5.10;;;;;;-10376.89;;;;107265;1271;64921;-37
2022/03/09 07:54:34;;;;;;;7.90;4.90;;;;;;-10127.07;;;;107309;1271;64851;-28
2022/03/09 07:57:01;;;;;;;7.70;4.70;;;;;;-10127.07;;;;107298;1272;64875;-28
2022/03/09 07:59:29;;;;;;;9.40;5.30;;;;;;-10127.07;;;;107239;1271;64744;-37
2022/03/09 08:01:56;;;;;;;8.90;5.40;;;;;;-10127.07;;;;107277;1271;64753;-38
2022/03/09 08:04:24;;;;;;;9.80;5.20;;;;;;-10251.98;;;;107257;1272;64712;-39
2022/03/09 08:06:53;;;;;;;9.40;5.30;;;;;;-10376.89;;;;107303;1274;64818;-39
2022/03/09 08:09:20;;;;;;;9.50;5.10;;;;;;-10251.98;;;;107317;1271;64808;-39
2022/03/09 08:11:48;;;;;;;9.60;5.20;;;;;;-10002.16;;;;107265;1271;63545;-43
2022/03/09 08:14:15;;;;;;;9.00;5.00;;;;;;-10376.89;;;;107254;1271;64884;-30
2022/03/09 08:16:43;;;;;;;9.00;4.80;;;;;;-10127.07;;;;107258;1271;65417;-30
2022/03/09 08:19:10;;;;;;;7.50;4.60;;;;;;-10002.16;;;;107285;1271;64894;-28
2022/03/09 08:21:37;;;;;;;9.10;5.10;;;;;;-10251.98;;;;107173;1274;66876;-28
2022/03/09 08:24:09;;;;;;;8.10;4.80;;;;;;-10002.16;;;;107262;1271;64878;-31
2022/03/09 08:26:37;;;;;;;8.90;5.20;;;;;;-10127.07;;;;107195;1275;64722;-34
2022/03/09 08:29:04;;;;;;;9.80;4.60;;;;;;-10251.98;;;;107271;1272;64761;-34
2022/03/09 08:31:32;;;;;;;8.80;4.90;;;;;;-10251.98;;;;107281;1274;64862;-37
2022/03/09 08:33:59;;;;;;;8.40;4.90;;;;;;-10127.07;;;;107307;1272;64777;-40
2022/03/09 08:36:26;;;;;;;10.20;5.00;;;;;;-10251.98;;;;107264;1271;64754;-28
2022/03/09 08:38:55;;;;;;;9.00;5.10;;;;;;-10127.07;;;;107264;1271;63799;-28
2022/03/09 08:41:26;;;;;;;8.00;4.60;;;;;;-10002.16;;;;107281;1271;64753;-27
2022/03/09 08:43:54;;;;;;;7.80;4.60;;;;;;-10251.98;;;;107256;1271;64744;-28
2022/03/09 08:46:22;;;;;;;8.00;4.50;;;;;;-10002.16;;;;107277;1271;64757;-27
2022/03/09 08:48:49;;;;;;;9.40;4.50;;;;;;-10251.98;;;;107212;1271;64732;-28
2022/03/09 08:51:20;;;;;;;8.00;4.30;;;;;;-10127.07;;;;107245;1271;64859;-27
2022/03/09 08:53:48;;;;;;;9.00;4.80;;;;;;-10127.07;;;;107229;1274;64748;-28
2022/03/09 08:56:15;;;;;;;6.70;4.30;;;;;;-10376.89;;;;107294;1271;64747;-28
2022/03/09 08:58:43;;;;;;;7.30;4.20;;;;;;-10127.07;;;;107244;1275;65964;-33
2022/03/09 09:01:10;;;;;;;8.00;4.60;;;;;;-10127.07;;;;107272;1271;64980;-28
2022/03/09 09:03:37;;;;;;;9.50;4.20;;;;;;-10251.98;;;;107241;1271;64860;-28
2022/03/09 09:06:05;;;;;;;9.90;4.70;;;;;;-10127.07;;;;107239;1271;64848;-28
2022/03/09 09:08:32;;;;;;;8.40;4.10;;;;;;-10127.07;;;;107264;1272;64751;-28
2022/03/09 09:10:59;;;;;;;7.40;4.00;;;;;;-10002.16;;;;107250;1271;64939;-29
2022/03/09 09:13:26;;;;;;;7.70;4.10;;;;;;-10127.07;;;;107256;1271;64747;-29
2022/03/09 09:15:54;;;;;;;8.90;4.10;;;;;;-10002.16;;;;107236;1271;65199;-34
2022/03/09 09:18:21;;;;;;;10.40;4.40;;;;;;-10127.07;;;;107210;1271;64775;-32
2022/03/09 09:20:48;;;;;;;7.70;4.00;;;;;;-10127.07;;;;107287;1271;64858;-28
2022/03/09 09:23:16;;;;;;;7.90;4.40;;;;;;-10376.89;;;;107249;1271;64763;-27
2022/03/09 09:25:45;;;;;;;8.60;3.80;;;;;;-10376.89;;;;107237;1271;64766;-28
2022/03/09 09:28:13;;;;;;;6.60;3.50;;;;;;-10251.98;;;;107300;1271;64721;-28
2022/03/09 09:30:40;;;;;;;7.70;4.00;;;;;;-10376.89;;;;107229;1272;64881;-28
2022/03/09 09:33:08;;;;;;;6.80;3.80;;;;;;-10251.98;;;;107247;1274;64872;-28
2022/03/09 09:35:35;;;;;;;6.40;3.70;;;;;;-10376.89;;;;107256;1271;64843;-27
2022/03/09 09:38:09;;;;;;;8.10;3.70;;;;;;-10002.16;;;;107236;1273;64734;-37
2022/03/09 09:40:41;;;;;;;7.70;3.90;;;;;;-10002.16;;;;107246;1274;64740;-34
2022/03/09 09:43:13;;;;;;;6.80;3.50;;;;;;-10251.98;;;;107227;1271;64825;-36
2022/03/09 09:45:42;;;;;;;7.10;3.40;;;;;;-10127.07;;;;107282;1271;64958;-27
2022/03/09 09:48:10;;;;;;;7.10;3.60;;;;;;-10251.98;;;;107272;1274;64849;-34
2022/03/09 09:50:39;;;;;;;7.10;3.80;;;;;;-10002.16;;;;107299;1271;64779;-27
2022/03/09 09:53:11;;;;;;;5.90;2.90;;;;;;-10127.07;;;;107297;1271;64756;-27
2022/03/09 09:55:41;;;;;;;7.10;3.50;;;;;;-10127.07;;;;107277;1271;64759;-28
2022/03/09 09:58:08;;;;;;;7.60;3.80;;;;;;-10501.80;;;;107256;1271;64868;-29
2022/03/09 10:00:36;;;;;;;6.20;3.50;;;;;;-10251.98;;;;107267;1274;64873;-37
2022/03/09 10:03:04;;;;;;;5.60;3.20;;;;;;-10127.07;;;;107250;1271;65122;-37
2022/03/09 10:05:32;;;;;;;5.60;3.10;;;;;;-10376.89;;;;107250;1271;64838;-43
2022/03/09 10:08:06;;;;;;;6.00;2.80;;;;;;-10251.98;;;;107238;1271;64872;-38
2022/03/09 10:10:39;;;;;;;6.10;3.50;;;;;;-10127.07;;;;107269;1271;64719;-37
2022/03/09 10:13:18;;;;;;;;;;;;;;-10376.89;;;;107309;1271;64728;-38
2022/03/09 10:16:16;;;;;;;6.40;3.50;;;;;;-10002.16;;;;107291;1271;64827;-39
2022/03/09 10:19:01;;;;;;;5.80;3.40;;;;;;-10127.07;;;;107277;1271;64728;-38
2022/03/09 10:21:35;;;;;;;6.80;3.40;;;;;;-10127.07;;;;107216;1271;64816;-29
2022/03/09 10:24:09;;;;;;;5.50;3.10;;;;;;-10127.07;;;;107193;1274;64754;-28
2022/03/09 10:26:38;;;;;;;6.80;3.10;;;;;;-10251.98;;;;107244;1271;65547;-28
2022/03/09 10:29:16;;;;;;;6.10;3.20;;;;;;-10376.89;;;;107242;1274;64768;-36
2022/03/09 10:31:49;;;;;;;6.40;3.10;;;;;;-10251.98;;;;107180;1274;64901;-38
2022/03/09 10:34:17;;;;;;;6.50;3.20;;;;;;-10251.98;;;;107277;1271;64815;-29
2022/03/09 10:37:05;;;;;;;5.90;3.00;;;;;;-10376.89;;;;107160;1271;64766;-27
2022/03/09 10:39:37;;;;;;;5.70;2.90;;;;;;-10376.89;;;;107233;1271;65764;-34
2022/03/09 10:42:26;;;;;;;6.80;3.20;;;;;;-10127.07;;;;107226;1271;64786;-28
2022/03/09 10:44:54;;;;;;;5.30;3.00;;;;;;-10127.07;;;;107244;1271;64754;-34
2022/03/09 10:47:40;;;;;;;5.90;2.80;;;;;;-10251.98;;;;107244;1271;65401;-42
2022/03/09 10:50:20;;;;;;;5.70;2.90;;;;;;-10376.89;;;;107275;1271;64760;-27
2022/03/09 10:53:01;;;;;;;5.50;2.80;;;;;;-10376.89;;;;107258;1271;66101;-41
2022/03/09 10:55:37;;;;;;;4.70;2.60;;;;;;-10251.98;;;;107262;1271;64772;-45
2022/03/09 10:58:17;;;;;;;6.70;3.00;;;;;;-10376.89;;;;107264;1271;64721;-48
2022/03/09 11:00:48;;;;;;;5.10;3.10;;;;;;-10251.98;;;;107215;1271;64947;-26
2022/03/09 11:03:19;;;;;;;5.50;2.80;;;;;;-10251.98;;;;107259;1271;64776;-26
2022/03/09 11:06:01;;;;;;;5.10;2.80;;;;;;-10127.07;;;;107223;1271;64721;-26
2022/03/09 11:08:32;;;;;;;6.60;2.50;;;;;;-10002.16;;;;107247;1271;64867;-26
2022/03/09 11:10:59;;;;;;;5.80;3.10;;;;;;-10251.98;;;;107250;1271;64763;-27
2022/03/09 11:13:30;;;;;;;5.20;2.90;;;;;;-10002.16;;;;107222;1271;64772;-37
2022/03/09 11:15:57;;;;;;;5.60;3.30;;;;;;-10251.98;;;;107289;1271;64708;-27
2022/03/09 11:18:28;;;;;;;6.00;3.10;;;;;;-10376.89;;;;107280;1271;64750;-27
2022/03/09 11:21:00;;;;;;;6.10;2.90;;;;;;-10251.98;;;;107228;1271;64192;-27
2022/03/09 11:23:30;;;;;;;5.80;2.70;;;;;;-10127.07;;;;107192;1274;64826;-29
2022/03/09 11:26:11;;;;;;;6.60;3.00;;;;;;-10127.07;;;;107245;1271;65097;-26
2022/03/09 11:28:42;;;;;;;5.90;2.70;;;;;;-10376.89;;;;107172;1270;64725;-26
2022/03/09 11:31:15;;;;;;;4.40;2.30;;;;;;-10251.98;;;;107172;1274;64865;-44
2022/03/09 11:33:53;;;;;;;5.90;2.70;;;;;;-10127.07;;;;107249;1271;64773;-39
2022/03/09 11:36:23;;;;;;;5.10;2.60;;;;;;-10002.16;;;;107128;1271;64895;-27
2022/03/09 11:38:57;;;;;;;4.80;2.20;;;;;;-10376.89;;;;107204;1273;64778;-28
2022/03/09 11:41:32;;;;;;;4.60;2.20;;;;;;-10251.98;;;;107199;1274;64908;-27
2022/03/09 11:44:18;;;;;;;4.90;2.50;;;;;;-10002.16;;;;107246;1271;65638;-28
2022/03/09 11:47:00;;;;;;;5.90;2.30;;;;;;-10127.07;;;;107201;1271;66632;-26
2022/03/09 11:49:52;;;;;;;5.20;2.50;;;;;;-10251.98;;;;107231;1271;64825;-51
2022/03/09 11:52:24;;;;;;;6.00;2.80;;;;;;-10251.98;;;;107212;1271;64914;-40
2022/03/09 11:54:56;;;;;;;5.30;2.40;;;;;;-10376.89;;;;107281;1271;64721;-38
2022/03/09 11:57:25;;;;;;;5.10;3.00;;;;;;-10127.07;;;;107235;1274;65793;-35
2022/03/09 11:59:58;;;;;;;5.40;2.40;;;;;;-10376.89;;;;107168;1274;64882;-26
2022/03/09 12:02:57;;;;;;;6.20;2.60;;;;;;-10376.89;;;;107257;1271;64766;-27
2022/03/09 12:05:27;;;;;;;4.70;2.20;;;;;;-10376.89;;;;107210;1271;64717;-28
2022/03/09 12:07:59;;;;;;;4.90;2.40;;;;;;-10251.98;;;;107232;1271;64731;-27
2022/03/09 12:10:56;;;;;;;6.10;3.10;;;;;;-10002.16;;;;107284;1271;66564;-27
2022/03/09 12:13:41;;;;;;;3.80;2.10;;;;;;-10376.89;;;;107147;1274;64728;-29
2022/03/09 12:16:26;;;;;;;5.50;2.30;;;;;;-10002.16;;;;107158;1271;64829;-45
2022/03/09 12:19:05;;;;;;;5.10;2.80;;;;;;-10002.16;;;;107218;1271;64984;-51
2022/03/09 12:21:35;;;;;;;4.80;2.40;;;;;;-10376.89;;;;107285;1271;64880;-35
2022/03/09 12:24:02;;;;;;;5.40;2.70;;;;;;-10251.98;;;;107257;1271;65794;-34
2022/03/09 12:26:51;;;;;;;7.40;2.90;;;;;;-10251.98;;;;107058;1271;332299;-35
2022/03/09 12:29:21;;;;;;;5.30;2.60;;;;;;-10127.07;;;;107273;1271;64907;-26
2022/03/09 12:32:02;;;;;;;5.50;2.60;;;;;;-10002.16;;;;107241;1271;65004;-28
2022/03/09 12:34:45;;;;;;;5.90;2.50;;;;;;-10251.98;;;;107292;1271;64833;-27
2022/03/09 12:37:17;;;;;;;5.90;2.60;;;;;;-10127.07;;;;107258;1271;64862;-41
2022/03/09 12:40:01;;;;;;;4.80;2.30;;;;;;-10251.98;;;;107233;1274;64695;-37
2022/03/09 12:42:31;;;;;;;4.90;2.10;;;;;;-10127.07;;;;107253;1274;64776;-42
2022/03/09 12:45:00;;;;;;;5.10;2.30;;;;;;-10251.98;;;;107138;1274;64616;-41
2022/03/09 12:47:28;;;;;;;4.30;2.10;;;;;;-10127.07;;;;107292;1274;64725;-38
2022/03/09 12:49:55;;;;;;;4.80;2.20;;;;;;-10127.07;;;;107284;1272;64884;-35
2022/03/09 12:52:23;;;;;;;3.90;1.90;;;;;;-10127.07;;;;107248;1271;64734;-39
2022/03/09 12:54:56;;;;;;;5.70;2.20;;;;;;-10127.07;;;;107245;1271;64905;-33
2022/03/09 12:57:29;;;;;;;4.70;2.00;;;;;;-10002.16;;;;107265;1274;64818;-36
2022/03/09 13:00:13;;;;;;;4.00;1.80;;;;;;-10127.07;;;;107281;1274;64814;-26